Time;durP1;ratioP1;P1;durP2;ratioP2;P2;SDS_P1;SDS_P2;PMS_P1;PMS_P2;Temp;Humidity;BMP_temperature;BMP_pressure;BME280_temperature;BME280_humidity;BME280_pressure;Samples;Min_cycle;Max_cycle;Signal;HPM_P1;HPM_P2
2024/01/09 00:02:11;;;;;;;22.77;11.97;;;-1.20;99.90;;;;;;5017897;28;20278;-66
2024/01/09 00:04:37;;;;;;;18.17;11.60;;;-1.20;99.90;;;;;;5013701;28;20476;-67
2024/01/09 00:07:03;;;;;;;21.10;12.40;;;-1.30;99.90;;;;;;5014748;28;20266;-66
2024/01/09 00:09:28;;;;;;;18.37;11.07;;;-1.30;99.90;;;;;;5013078;28;20184;-66
2024/01/09 00:11:54;;;;;;;17.10;11.60;;;-1.30;99.90;;;;;;5013888;28;20191;-66
2024/01/09 00:14:19;;;;;;;20.10;11.57;;;-1.30;99.90;;;;;;5011763;28;20242;-65
2024/01/09 00:16:45;;;;;;;20.27;12.50;;;-1.30;99.90;;;;;;5007184;28;20186;-67
2024/01/09 00:19:10;;;;;;;15.83;11.33;;;-1.30;99.90;;;;;;5011364;28;20702;-66
2024/01/09 00:21:38;;;;;;;17.50;11.60;;;-1.30;99.90;;;;;;5015439;28;20612;-66
2024/01/09 00:24:04;;;;;;;19.23;12.03;;;-1.30;99.90;;;;;;5010165;28;20251;-66
2024/01/09 00:26:30;;;;;;;16.23;10.90;;;-1.30;99.90;;;;;;5019171;28;20863;-66
2024/01/09 00:28:55;;;;;;;18.47;11.93;;;-1.40;99.90;;;;;;5016465;28;20250;-66
2024/01/09 00:31:21;;;;;;;16.80;10.60;;;-1.40;99.90;;;;;;5011529;28;20181;-66
2024/01/09 00:33:46;;;;;;;22.43;11.23;;;-1.40;99.90;;;;;;5019267;28;20295;-66
2024/01/09 00:36:12;;;;;;;27.27;13.40;;;-1.40;99.90;;;;;;5013479;28;20181;-66
2024/01/09 00:38:38;;;;;;;18.70;11.47;;;-1.40;99.90;;;;;;5013269;28;20219;-66
2024/01/09 00:41:03;;;;;;;22.20;12.67;;;-1.40;99.90;;;;;;5013785;28;20188;-67
2024/01/09 00:43:29;;;;;;;20.60;12.50;;;-1.40;99.90;;;;;;5017255;28;20202;-66
2024/01/09 00:45:54;;;;;;;19.63;12.50;;;-1.50;99.90;;;;;;5013393;28;20547;-65
2024/01/09 00:48:20;;;;;;;22.30;13.17;;;-1.40;99.90;;;;;;5018613;28;20223;-67
2024/01/09 00:50:45;;;;;;;15.47;10.67;;;-1.40;99.90;;;;;;5015772;28;20205;-67
2024/01/09 00:53:11;;;;;;;19.60;12.40;;;-1.50;99.90;;;;;;5015620;28;20204;-67
2024/01/09 00:55:36;;;;;;;17.73;11.60;;;-1.50;99.90;;;;;;5011983;28;20222;-67
2024/01/09 00:58:02;;;;;;;16.53;10.77;;;-1.50;99.90;;;;;;5012532;28;20232;-66
2024/01/09 01:00:28;;;;;;;21.73;11.60;;;-1.50;99.90;;;;;;5012864;28;20341;-66
2024/01/09 01:02:53;;;;;;;17.23;11.97;;;-1.50;99.90;;;;;;5012639;28;20192;-66
2024/01/09 01:05:19;;;;;;;19.03;11.50;;;-1.50;99.90;;;;;;5012391;28;20193;-67
2024/01/09 01:07:44;;;;;;;18.90;11.90;;;-1.40;99.90;;;;;;5007216;28;20282;-67
2024/01/09 01:10:12;;;;;;;22.87;12.40;;;-1.40;99.90;;;;;;5007956;28;20189;-67
2024/01/09 01:12:38;;;;;;;18.93;11.67;;;-1.50;99.90;;;;;;5020161;28;20552;-67
2024/01/09 01:15:04;;;;;;;26.23;13.30;;;-1.50;99.90;;;;;;5014590;28;20503;-68
2024/01/09 01:17:30;;;;;;;17.83;11.57;;;-1.50;99.90;;;;;;5017480;28;20428;-67
2024/01/09 01:19:55;;;;;;;22.20;12.23;;;-1.50;99.90;;;;;;5011815;28;20487;-66
2024/01/09 01:22:21;;;;;;;20.50;11.50;;;-1.50;99.90;;;;;;5011011;28;20234;-66
2024/01/09 01:24:46;;;;;;;19.40;13.17;;;-1.50;99.90;;;;;;5015757;28;20200;-66
2024/01/09 01:27:12;;;;;;;18.80;11.40;;;-1.50;99.90;;;;;;5021294;28;20553;-66
2024/01/09 01:29:37;;;;;;;21.07;11.30;;;-1.50;99.90;;;;;;5010316;28;21208;-66
2024/01/09 01:32:09;;;;;;;25.70;12.50;;;-1.50;99.90;;;;;;5013143;28;20611;-66
2024/01/09 01:34:35;;;;;;;18.23;11.97;;;-1.60;99.90;;;;;;5010408;28;20263;-66
2024/01/09 01:37:00;;;;;;;24.40;12.77;;;-1.60;99.90;;;;;;5009809;28;20433;-66
2024/01/09 01:39:26;;;;;;;18.47;11.20;;;-1.60;99.90;;;;;;5018073;28;20475;-67
2024/01/09 01:41:52;;;;;;;19.43;12.57;;;-1.60;99.90;;;;;;5009606;28;20240;-66
2024/01/09 01:44:18;;;;;;;17.63;11.73;;;-1.60;99.90;;;;;;5009983;28;20681;-66
2024/01/09 01:46:45;;;;;;;24.73;13.63;;;-1.60;99.90;;;;;;5012654;28;20178;-67
2024/01/09 01:49:12;;;;;;;21.50;11.10;;;-1.60;99.90;;;;;;5012951;28;20479;-66
2024/01/09 01:51:39;;;;;;;20.93;11.13;;;-1.50;99.90;;;;;;5008766;28;20432;-67
2024/01/09 01:54:06;;;;;;;18.00;11.30;;;-1.50;99.90;;;;;;5011590;28;20444;-66
2024/01/09 01:56:32;;;;;;;17.27;11.60;;;-1.50;99.90;;;;;;5019234;28;20492;-67
2024/01/09 01:58:58;;;;;;;18.17;11.97;;;-1.60;99.90;;;;;;5012027;28;20473;-66
2024/01/09 02:01:24;;;;;;;19.60;11.90;;;-1.60;99.90;;;;;;5015753;28;20439;-66
2024/01/09 02:03:50;;;;;;;20.30;11.93;;;-1.70;99.90;;;;;;5020689;28;20444;-67
2024/01/09 02:06:16;;;;;;;22.83;12.83;;;-1.70;99.90;;;;;;5012942;28;20413;-66
2024/01/09 02:08:43;;;;;;;18.53;11.27;;;-1.70;99.90;;;;;;5015516;28;20438;-66
2024/01/09 02:11:10;;;;;;;23.13;12.57;;;-1.60;99.90;;;;;;5016459;28;20449;-66
2024/01/09 02:13:35;;;;;;;18.40;12.27;;;-1.60;99.90;;;;;;5013008;28;20462;-67
2024/01/09 02:16:01;;;;;;;20.93;12.57;;;-1.60;99.90;;;;;;5008331;28;20475;-67
2024/01/09 02:18:27;;;;;;;19.97;11.97;;;-1.60;99.90;;;;;;5013066;28;20228;-67
2024/01/09 02:20:53;;;;;;;17.60;11.43;;;-1.60;99.90;;;;;;5016467;28;20592;-67
2024/01/09 02:23:18;;;;;;;18.80;12.00;;;-1.60;99.90;;;;;;5009657;28;20211;-67
2024/01/09 02:25:45;;;;;;;20.27;11.60;;;-1.70;99.90;;;;;;5018657;28;20284;-66
2024/01/09 02:28:23;;;;;;;23.00;13.20;;;-1.70;99.90;;;;;;5015772;28;20185;-66
2024/01/09 02:30:53;;;;;;;20.43;13.77;;;-1.70;99.90;;;;;;5011878;28;20938;-66
2024/01/09 02:33:19;;;;;;;17.63;12.63;;;-1.70;99.90;;;;;;5017255;28;20498;-66
2024/01/09 02:35:45;;;;;;;21.67;12.70;;;-1.70;99.90;;;;;;5019021;28;20463;-66
2024/01/09 02:38:10;;;;;;;20.70;12.90;;;-1.70;99.90;;;;;;5016830;28;20506;-66
2024/01/09 02:40:36;;;;;;;18.60;11.80;;;-1.70;99.90;;;;;;5014796;28;20913;-66
2024/01/09 02:43:01;;;;;;;20.17;11.27;;;-1.70;99.90;;;;;;5015137;28;20201;-67
2024/01/09 02:45:27;;;;;;;18.97;11.40;;;-1.70;99.90;;;;;;5014295;28;20194;-67
2024/01/09 02:47:53;;;;;;;22.90;13.33;;;-1.70;99.90;;;;;;5012415;28;20315;-67
2024/01/09 02:50:20;;;;;;;18.70;11.60;;;-1.80;99.90;;;;;;5017809;28;20265;-67
2024/01/09 02:52:46;;;;;;;20.70;12.03;;;-1.80;99.90;;;;;;5015765;28;20189;-67
2024/01/09 02:55:12;;;;;;;19.23;12.37;;;-1.70;99.90;;;;;;5013322;28;20516;-67
2024/01/09 02:57:40;;;;;;;20.10;12.70;;;-1.70;99.90;;;;;;5013123;28;20433;-67
2024/01/09 03:00:08;;;;;;;20.93;12.10;;;-1.70;99.90;;;;;;5019121;28;20208;-67
2024/01/09 03:02:33;;;;;;;21.50;11.70;;;-1.80;99.90;;;;;;5016735;28;20910;-67
2024/01/09 03:05:00;;;;;;;19.20;11.50;;;-1.70;99.90;;;;;;5018499;28;20452;-67
2024/01/09 03:07:26;;;;;;;19.63;11.00;;;-1.70;99.90;;;;;;5015724;28;20649;-67
2024/01/09 03:09:53;;;;;;;19.77;12.17;;;-1.70;99.90;;;;;;5014569;28;20548;-67
2024/01/09 03:12:18;;;;;;;19.40;11.63;;;-1.70;99.90;;;;;;5016233;28;20607;-67
2024/01/09 03:14:44;;;;;;;23.13;12.80;;;-1.70;99.90;;;;;;5017666;28;20819;-67
2024/01/09 03:17:10;;;;;;;20.23;11.80;;;-1.70;99.90;;;;;;5014193;28;20202;-66
2024/01/09 03:19:36;;;;;;;19.87;11.60;;;-1.70;99.90;;;;;;5019145;28;20234;-67
2024/01/09 03:22:02;;;;;;;18.30;10.93;;;-1.80;99.90;;;;;;5015211;28;20519;-67
2024/01/09 03:24:27;;;;;;;24.27;12.67;;;-1.80;99.90;;;;;;5012480;28;20210;-67
2024/01/09 03:26:53;;;;;;;19.47;10.83;;;-1.80;99.90;;;;;;5017447;28;20188;-66
2024/01/09 03:29:19;;;;;;;23.60;11.60;;;-1.80;99.90;;;;;;5016042;28;20211;-66
2024/01/09 03:31:45;;;;;;;19.83;12.23;;;-1.80;99.90;;;;;;5019182;28;20219;-66
2024/01/09 03:34:10;;;;;;;19.40;11.23;;;-1.80;99.90;;;;;;5018823;28;21057;-66
2024/01/09 03:36:38;;;;;;;16.93;11.13;;;-1.80;99.90;;;;;;5013988;28;20194;-67
2024/01/09 03:39:04;;;;;;;21.00;11.50;;;-1.80;99.90;;;;;;5017633;28;20272;-67
2024/01/09 03:41:31;;;;;;;22.47;11.43;;;-1.80;99.90;;;;;;5018374;28;20911;-67
2024/01/09 03:43:57;;;;;;;22.67;12.43;;;-1.80;99.90;;;;;;5014906;28;20456;-67
2024/01/09 03:46:23;;;;;;;17.23;10.70;;;-1.80;99.90;;;;;;5015689;28;20416;-67
2024/01/09 03:48:49;;;;;;;18.07;10.90;;;-1.90;99.90;;;;;;5012643;28;20781;-67
2024/01/09 03:51:14;;;;;;;18.33;11.33;;;-1.80;99.90;;;;;;5012118;28;20242;-67
2024/01/09 03:53:40;;;;;;;18.43;10.70;;;-1.80;99.90;;;;;;5016701;28;20208;-66
2024/01/09 03:56:06;;;;;;;22.43;12.87;;;-1.90;99.90;;;;;;5016948;28;20188;-66
2024/01/09 03:58:31;;;;;;;23.23;14.53;;;-1.90;99.90;;;;;;5018890;28;20217;-66
2024/01/09 04:00:57;;;;;;;20.33;12.50;;;-1.90;99.90;;;;;;5014168;28;20191;-67
2024/01/09 04:03:23;;;;;;;21.30;11.07;;;-1.90;99.90;;;;;;5019272;28;20199;-66
2024/01/09 04:05:48;;;;;;;17.83;11.50;;;-1.90;99.90;;;;;;5015305;28;20235;-67
2024/01/09 04:08:14;;;;;;;17.57;10.20;;;-1.90;99.90;;;;;;5012681;28;20662;-67
2024/01/09 04:10:41;;;;;;;23.40;11.50;;;-1.90;99.90;;;;;;5015924;28;20185;-67
2024/01/09 04:13:06;;;;;;;20.57;10.77;;;-1.90;99.90;;;;;;5019464;28;20519;-66
2024/01/09 04:15:34;;;;;;;23.30;11.47;;;-1.90;99.90;;;;;;5012842;28;21140;-66
2024/01/09 04:18:00;;;;;;;24.13;11.40;;;-1.90;99.90;;;;;;5013028;28;20241;-67
2024/01/09 04:20:26;;;;;;;23.53;13.20;;;-1.90;99.90;;;;;;5012145;28;20971;-67
2024/01/09 04:22:52;;;;;;;19.90;11.13;;;-1.90;99.90;;;;;;5015284;28;20468;-66
2024/01/09 04:25:18;;;;;;;18.50;11.30;;;-1.90;99.90;;;;;;5010285;28;20454;-67
2024/01/09 04:27:43;;;;;;;16.77;11.00;;;-1.90;99.90;;;;;;5017990;28;20320;-66
2024/01/09 04:30:10;;;;;;;21.03;12.13;;;-1.90;99.90;;;;;;5014878;28;20240;-66
2024/01/09 04:32:36;;;;;;;19.07;10.80;;;-1.90;99.90;;;;;;5014518;28;20280;-66
2024/01/09 04:35:01;;;;;;;19.90;11.10;;;-1.90;99.90;;;;;;5010980;28;20583;-66
2024/01/09 04:37:27;;;;;;;18.13;11.07;;;-1.90;99.90;;;;;;5014881;28;20190;-66
2024/01/09 04:39:52;;;;;;;17.07;9.97;;;-1.80;99.90;;;;;;5011444;28;20206;-67
2024/01/09 04:42:18;;;;;;;21.90;11.63;;;-1.80;99.90;;;;;;5015970;28;20273;-67
2024/01/09 04:44:43;;;;;;;23.10;12.03;;;-1.90;99.90;;;;;;5017509;28;21064;-67
2024/01/09 04:47:13;;;;;;;22.17;11.70;;;-1.90;99.90;;;;;;5017168;28;20556;-65
2024/01/09 04:49:38;;;;;;;17.60;11.13;;;-1.90;99.90;;;;;;5012952;28;20670;-66
2024/01/09 04:52:05;;;;;;;17.53;10.67;;;-1.90;99.90;;;;;;5016882;28;20441;-66
2024/01/09 04:54:31;;;;;;;20.73;10.70;;;-1.90;99.90;;;;;;5012270;28;20973;-66
2024/01/09 04:56:56;;;;;;;19.00;11.03;;;-1.90;99.90;;;;;;5015528;28;20435;-66
2024/01/09 04:59:22;;;;;;;17.97;10.17;;;-1.90;99.90;;;;;;5007154;28;20269;-66
2024/01/09 05:01:51;;;;;;;17.97;10.90;;;-1.90;99.90;;;;;;5008288;28;20182;-66
2024/01/09 05:04:16;;;;;;;16.47;10.60;;;-1.90;99.90;;;;;;5010234;28;20206;-66
2024/01/09 05:06:42;;;;;;;21.70;11.57;;;-1.90;99.90;;;;;;5014518;28;20424;-66
2024/01/09 05:09:08;;;;;;;19.33;10.60;;;-1.90;99.90;;;;;;5005008;28;20212;-66
2024/01/09 05:11:33;;;;;;;20.17;10.80;;;-1.90;99.90;;;;;;5010158;28;20654;-66
2024/01/09 05:13:59;;;;;;;21.30;11.20;;;-1.90;99.90;;;;;;5006749;28;20270;-66
2024/01/09 05:16:26;;;;;;;21.37;11.17;;;-2.00;99.90;;;;;;5016095;28;20217;-66
2024/01/09 05:18:51;;;;;;;16.90;10.47;;;-2.00;99.90;;;;;;5008266;28;20219;-66
2024/01/09 05:21:17;;;;;;;21.57;11.10;;;-1.90;99.90;;;;;;5014792;28;20479;-66
2024/01/09 05:23:42;;;;;;;20.53;9.87;;;-1.90;99.90;;;;;;5016848;28;20280;-66
2024/01/09 05:26:09;;;;;;;20.70;12.00;;;-1.90;99.90;;;;;;5016445;28;20241;-66
2024/01/09 05:28:34;;;;;;;14.33;9.83;;;-1.90;99.90;;;;;;5010930;28;20600;-66
2024/01/09 05:31:01;;;;;;;20.10;11.43;;;-2.00;99.90;;;;;;5008397;28;20422;-66
2024/01/09 05:33:27;;;;;;;21.27;12.40;;;-1.90;99.90;;;;;;5012043;28;20210;-66
2024/01/09 05:35:53;;;;;;;18.90;10.80;;;-1.90;99.90;;;;;;5011955;28;20921;-66
2024/01/09 05:38:19;;;;;;;18.60;10.13;;;-1.90;99.90;;;;;;5013460;28;20235;-66
2024/01/09 05:40:45;;;;;;;20.40;11.17;;;-2.00;99.90;;;;;;5008905;28;20452;-66
2024/01/09 05:43:10;;;;;;;17.87;9.67;;;-2.00;99.90;;;;;;5015358;28;20722;-66
2024/01/09 05:45:36;;;;;;;26.33;11.80;;;-2.00;99.90;;;;;;5007318;28;20492;-66
2024/01/09 05:48:02;;;;;;;20.67;11.37;;;-2.00;99.90;;;;;;5011756;28;21249;-66
2024/01/09 05:50:27;;;;;;;19.63;11.87;;;-1.90;99.90;;;;;;5009629;28;20207;-66
2024/01/09 05:52:53;;;;;;;22.93;11.67;;;-1.90;99.90;;;;;;5012243;28;20421;-66
2024/01/09 05:55:19;;;;;;;21.57;10.80;;;-2.00;99.90;;;;;;5016460;28;20192;-66
2024/01/09 05:57:45;;;;;;;17.83;10.40;;;-2.00;99.90;;;;;;5013359;28;20197;-66
2024/01/09 06:00:11;;;;;;;19.50;10.57;;;-2.00;99.90;;;;;;5014892;28;20575;-66
2024/01/09 06:02:36;;;;;;;24.70;11.80;;;-2.00;99.90;;;;;;5014458;28;20445;-66
2024/01/09 06:05:02;;;;;;;17.70;11.27;;;-2.00;99.90;;;;;;5019001;28;20449;-66
2024/01/09 06:07:28;;;;;;;18.90;10.70;;;-2.00;99.90;;;;;;5012091;28;20280;-66
2024/01/09 06:09:54;;;;;;;20.80;12.67;;;-2.00;99.90;;;;;;5017369;28;20247;-66
2024/01/09 06:12:19;;;;;;;25.10;11.43;;;-2.00;99.90;;;;;;5019013;28;20215;-66
2024/01/09 06:14:45;;;;;;;19.60;10.77;;;-2.00;99.90;;;;;;5015664;28;20454;-66
2024/01/09 06:17:12;;;;;;;22.37;10.50;;;-2.00;99.90;;;;;;5010203;28;20190;-66
2024/01/09 06:19:37;;;;;;;20.33;12.10;;;-2.00;99.90;;;;;;5011540;28;20208;-66
2024/01/09 06:22:03;;;;;;;18.80;11.27;;;-2.00;99.90;;;;;;5016673;28;20440;-67
2024/01/09 06:24:29;;;;;;;21.73;11.50;;;-2.00;99.90;;;;;;5018867;28;20216;-66
2024/01/09 06:26:54;;;;;;;20.80;11.57;;;-2.00;99.90;;;;;;5014989;28;20211;-66
2024/01/09 06:29:21;;;;;;;18.07;10.23;;;-2.00;99.90;;;;;;5019331;28;20216;-66
2024/01/09 06:31:47;;;;;;;16.93;10.70;;;-2.00;99.90;;;;;;5018874;28;21540;-66
2024/01/09 06:34:12;;;;;;;16.47;9.87;;;-2.00;99.90;;;;;;5017990;28;20472;-66
2024/01/09 06:36:38;;;;;;;17.30;10.57;;;-2.00;99.90;;;;;;5010449;28;20274;-66
2024/01/09 06:39:03;;;;;;;21.33;11.73;;;-2.00;99.90;;;;;;5011976;28;20700;-66
2024/01/09 06:41:29;;;;;;;19.93;11.20;;;-1.90;99.90;;;;;;5008456;28;20187;-65
2024/01/09 06:43:55;;;;;;;22.13;11.67;;;-2.00;99.90;;;;;;5017260;28;20289;-65
2024/01/09 06:46:20;;;;;;;16.73;10.90;;;-2.00;99.90;;;;;;5018985;28;20181;-65
2024/01/09 06:48:46;;;;;;;18.77;11.80;;;-1.90;99.90;;;;;;5012579;28;20314;-65
2024/01/09 06:51:12;;;;;;;20.53;11.60;;;-1.90;99.90;;;;;;5019135;28;20198;-65
2024/01/09 06:53:38;;;;;;;21.70;12.20;;;-1.90;99.90;;;;;;5010900;28;20216;-65
2024/01/09 06:56:05;;;;;;;17.83;10.37;;;-2.00;99.90;;;;;;5014278;28;20437;-65
2024/01/09 06:58:30;;;;;;;22.00;11.50;;;-2.00;99.90;;;;;;5026445;28;20441;-65
2024/01/09 07:00:56;;;;;;;23.70;10.73;;;-1.90;99.90;;;;;;5020008;28;20441;-66
2024/01/09 07:03:22;;;;;;;19.87;10.50;;;-1.90;99.90;;;;;;5032133;28;20262;-65
2024/01/09 07:05:47;;;;;;;21.90;10.87;;;-1.90;99.90;;;;;;5021757;28;20184;-66
2024/01/09 07:08:13;;;;;;;18.90;11.07;;;-1.90;99.90;;;;;;5019279;28;20203;-65
2024/01/09 07:10:38;;;;;;;17.20;10.50;;;-1.90;99.90;;;;;;5019852;28;20222;-65
2024/01/09 07:13:04;;;;;;;18.00;10.80;;;-1.90;99.90;;;;;;5018692;28;20189;-65
2024/01/09 07:15:29;;;;;;;20.03;10.70;;;-1.90;99.90;;;;;;5015039;28;20691;-66
2024/01/09 07:17:55;;;;;;;20.70;10.37;;;-1.90;99.90;;;;;;5017423;28;20205;-66
2024/01/09 07:20:20;;;;;;;21.17;11.83;;;-1.90;99.90;;;;;;5016304;28;20242;-66
2024/01/09 07:22:46;;;;;;;24.60;11.70;;;-1.90;99.90;;;;;;5013787;28;20181;-66
2024/01/09 07:25:14;;;;;;;21.00;10.70;;;-1.90;99.90;;;;;;5014919;28;20687;-65
2024/01/09 07:27:39;;;;;;;21.90;10.90;;;-1.90;99.90;;;;;;5006204;28;20584;-65
2024/01/09 07:30:05;;;;;;;16.10;10.53;;;-1.90;99.90;;;;;;5019703;28;20443;-66
2024/01/09 07:32:31;;;;;;;16.87;10.07;;;-1.90;99.90;;;;;;5014951;28;20193;-65
2024/01/09 07:34:56;;;;;;;20.20;9.27;;;-1.90;99.90;;;;;;5015965;28;20473;-66
2024/01/09 07:37:22;;;;;;;19.73;10.23;;;-1.90;99.90;;;;;;5021111;28;20253;-68
2024/01/09 07:39:48;;;;;;;18.20;10.50;;;-1.80;99.90;;;;;;5008843;28;20242;-67
2024/01/09 07:42:14;;;;;;;18.10;10.40;;;-1.80;99.90;;;;;;5013120;28;20223;-67
2024/01/09 07:44:39;;;;;;;17.40;10.00;;;-1.80;99.90;;;;;;5017593;28;20439;-68
2024/01/09 07:47:07;;;;;;;21.40;10.63;;;-1.90;99.90;;;;;;5012455;28;20241;-67
2024/01/09 07:49:33;;;;;;;18.70;10.40;;;-1.90;99.90;;;;;;5012729;28;20931;-67
2024/01/09 07:51:58;;;;;;;20.97;10.27;;;-1.80;99.90;;;;;;5014599;28;20523;-67
2024/01/09 07:54:24;;;;;;;15.57;10.60;;;-1.80;99.90;;;;;;5023141;28;20241;-67
2024/01/09 07:56:50;;;;;;;20.40;10.70;;;-1.70;99.90;;;;;;5018495;28;20186;-67
2024/01/09 07:59:15;;;;;;;19.80;10.90;;;-1.70;99.90;;;;;;5017254;28;20975;-67
2024/01/09 08:01:41;;;;;;;16.57;9.83;;;-1.70;99.90;;;;;;5017813;28;20176;-68
2024/01/09 08:04:06;;;;;;;19.07;12.10;;;-1.60;99.90;;;;;;5012804;28;20312;-68
2024/01/09 08:06:32;;;;;;;20.10;11.43;;;-1.60;99.90;;;;;;5013288;28;20208;-67
2024/01/09 08:08:58;;;;;;;16.57;10.73;;;-1.50;99.90;;;;;;5018658;28;20215;-66
2024/01/09 08:11:23;;;;;;;17.63;10.83;;;-1.50;99.90;;;;;;5018987;28;21156;-66
2024/01/09 08:13:49;;;;;;;18.43;10.57;;;-1.50;99.90;;;;;;5008779;28;20207;-65
2024/01/09 08:16:14;;;;;;;19.53;11.00;;;-1.60;99.90;;;;;;5016307;28;20272;-65
2024/01/09 08:18:40;;;;;;;15.73;10.10;;;-1.50;99.90;;;;;;5008011;28;20804;-66
2024/01/09 08:21:06;;;;;;;21.10;10.90;;;-1.50;99.90;;;;;;5014479;28;20191;-66
2024/01/09 08:23:32;;;;;;;12.67;8.77;;;-1.40;99.90;;;;;;5013077;28;20281;-66
2024/01/09 08:25:57;;;;;;;17.67;11.23;;;-1.40;99.90;;;;;;5012435;28;20522;-66
2024/01/09 08:28:23;;;;;;;16.27;10.63;;;-1.40;99.90;;;;;;5009695;28;20272;-66
2024/01/09 08:30:48;;;;;;;15.90;10.63;;;-1.40;99.90;;;;;;5008666;28;20212;-66
2024/01/09 08:33:14;;;;;;;23.10;11.27;;;-1.30;99.90;;;;;;5010924;28;20211;-66
2024/01/09 08:35:40;;;;;;;20.73;11.17;;;-1.30;99.90;;;;;;5011692;28;20177;-66
2024/01/09 08:38:05;;;;;;;17.33;10.00;;;-1.30;99.90;;;;;;5009190;28;20828;-66
2024/01/09 08:40:31;;;;;;;39.57;20.87;;;-1.20;99.90;;;;;;5014238;28;20680;-66
2024/01/09 08:42:57;;;;;;;19.20;10.83;;;-1.20;99.90;;;;;;5012490;28;20220;-66
2024/01/09 08:45:24;;;;;;;20.70;12.47;;;-1.20;99.90;;;;;;5010425;28;20261;-67
2024/01/09 08:47:50;;;;;;;16.80;11.07;;;-1.20;99.90;;;;;;5011989;28;20191;-66
2024/01/09 08:50:15;;;;;;;25.03;12.97;;;-1.20;99.90;;;;;;5012204;28;20480;-67
2024/01/09 08:52:41;;;;;;;18.70;11.47;;;-1.20;99.90;;;;;;5007622;28;20189;-67
2024/01/09 08:55:07;;;;;;;17.93;10.90;;;-1.10;99.90;;;;;;5013411;28;20571;-67
2024/01/09 08:57:32;;;;;;;31.23;12.37;;;-1.00;99.90;;;;;;5013729;28;20201;-67
2024/01/09 08:59:58;;;;;;;19.73;11.30;;;-1.00;99.90;;;;;;5015509;28;20486;-66
2024/01/09 09:02:24;;;;;;;16.00;10.20;;;-0.90;99.90;;;;;;5015360;28;20186;-66
2024/01/09 09:04:51;;;;;;;18.10;11.57;;;-0.90;99.90;;;;;;5015331;28;20208;-66
2024/01/09 09:07:18;;;;;;;20.37;10.60;;;-0.80;99.90;;;;;;5009349;28;20538;-67
2024/01/09 09:09:44;;;;;;;19.70;10.47;;;-0.80;99.90;;;;;;5011849;28;20435;-67
2024/01/09 09:12:10;;;;;;;17.10;8.90;;;-0.70;99.90;;;;;;5013445;28;20440;-67
2024/01/09 09:14:36;;;;;;;21.77;10.57;;;-0.70;99.90;;;;;;5017275;28;20962;-67
2024/01/09 09:17:01;;;;;;;24.90;12.87;;;-0.60;99.90;;;;;;5015812;28;20424;-64
2024/01/09 09:19:27;;;;;;;17.47;11.20;;;-0.60;99.90;;;;;;5013515;28;20608;-65
2024/01/09 09:21:53;;;;;;;20.93;12.10;;;-0.50;99.90;;;;;;5012474;28;20212;-64
2024/01/09 09:24:19;;;;;;;19.77;11.37;;;-0.50;99.90;;;;;;5012093;28;20232;-66
2024/01/09 09:26:44;;;;;;;17.33;11.50;;;-0.40;99.90;;;;;;5007472;28;20818;-65
2024/01/09 09:29:10;;;;;;;19.90;10.33;;;-0.30;99.90;;;;;;5017294;28;20243;-68
2024/01/09 09:31:36;;;;;;;20.50;10.60;;;-0.20;99.90;;;;;;5008390;28;20198;-65
2024/01/09 09:34:01;;;;;;;19.00;11.30;;;-0.10;99.90;;;;;;5018663;28;20247;-65
2024/01/09 09:36:27;;;;;;;19.90;10.80;;;-0.10;99.90;;;;;;5015217;28;20274;-65
2024/01/09 09:38:53;;;;;;;20.80;11.30;;;-0.10;99.90;;;;;;5014671;28;20563;-65
2024/01/09 09:41:20;;;;;;;18.50;11.03;;;0.00;99.90;;;;;;5016588;28;20253;-66
2024/01/09 09:43:55;;;;;;;21.83;11.90;;;0.10;99.90;;;;;;5013317;28;20477;-66
2024/01/09 09:46:29;;;;;;;17.60;10.63;;;0.10;99.90;;;;;;5016958;28;20452;-66
2024/01/09 09:48:55;;;;;;;17.17;12.00;;;0.10;99.90;;;;;;5019063;28;20433;-66
2024/01/09 09:51:22;;;;;;;19.93;10.23;;;0.10;99.90;;;;;;5015187;28;20548;-67
2024/01/09 09:53:48;;;;;;;21.97;11.57;;;0.00;99.90;;;;;;5016189;28;20440;-66
2024/01/09 09:56:13;;;;;;;17.03;11.00;;;0.10;99.90;;;;;;5017078;28;20497;-66
2024/01/09 09:58:42;;;;;;;21.27;12.20;;;0.00;99.90;;;;;;5022858;28;20194;-66
2024/01/09 10:01:13;;;;;;;16.40;11.50;;;0.00;99.90;;;;;;5019347;28;20211;-66
2024/01/09 10:04:07;;;;;;;19.87;10.93;;;0.00;99.90;;;;;;5019315;28;20451;-66
2024/01/09 10:06:36;;;;;;;16.27;10.10;;;0.00;99.90;;;;;;5023093;28;20470;-66
2024/01/09 10:09:03;;;;;;;17.13;10.83;;;-0.20;99.90;;;;;;5019406;28;20951;-67
2024/01/09 10:11:31;;;;;;;18.37;11.50;;;-0.20;99.90;;;;;;5019331;28;20442;-66
2024/01/09 10:13:57;;;;;;;21.07;10.23;;;-0.20;99.90;;;;;;5018833;28;20599;-66
2024/01/09 10:16:23;;;;;;;17.67;11.63;;;-0.20;99.90;;;;;;5019126;28;21027;-66
2024/01/09 10:18:48;;;;;;;15.90;10.10;;;-0.20;99.90;;;;;;5019441;28;20216;-66
2024/01/09 10:21:14;;;;;;;20.10;11.50;;;-0.20;99.90;;;;;;5025108;28;20260;-66
2024/01/09 10:23:40;;;;;;;18.50;11.03;;;-0.20;99.90;;;;;;5020305;28;20234;-68
2024/01/09 10:26:12;;;;;;;20.33;12.20;;;-0.20;99.90;;;;;;5013092;28;20725;-66
2024/01/09 10:28:41;;;;;;;18.70;10.90;;;-0.20;99.90;;;;;;5015291;28;20521;-65
2024/01/09 10:31:07;;;;;;;17.17;10.97;;;-0.20;99.90;;;;;;5013128;28;20523;-66
2024/01/09 10:33:37;;;;;;;19.60;11.20;;;-0.10;99.90;;;;;;5014620;28;20450;-66
2024/01/09 10:36:02;;;;;;;18.50;10.97;;;-0.10;99.90;;;;;;5013748;28;20472;-66
2024/01/09 10:38:29;;;;;;;18.77;10.90;;;-0.10;99.90;;;;;;5012098;28;20431;-66
2024/01/09 10:40:56;;;;;;;20.43;11.60;;;-0.20;99.90;;;;;;5015985;28;20188;-66
2024/01/09 10:43:26;;;;;;;20.30;12.07;;;-0.10;99.90;;;;;;5016612;28;20508;-67
2024/01/09 10:45:53;;;;;;;17.10;10.10;;;-0.10;99.90;;;;;;5015432;28;20484;-66
2024/01/09 10:48:24;;;;;;;17.43;10.23;;;0.00;99.90;;;;;;5018289;28;20434;-66
2024/01/09 10:50:51;;;;;;;22.67;10.77;;;0.00;99.90;;;;;;5013528;28;20456;-65
2024/01/09 10:53:19;;;;;;;18.50;11.00;;;0.00;99.90;;;;;;5013598;28;20497;-66
2024/01/09 10:55:49;;;;;;;26.30;11.40;;;0.10;99.90;;;;;;5019349;28;20440;-67
2024/01/09 10:58:15;;;;;;;39.73;12.47;;;0.20;99.90;;;;;;5016266;28;20434;-67
2024/01/09 11:00:41;;;;;;;19.80;10.97;;;0.20;99.90;;;;;;5020831;28;20827;-67
2024/01/09 11:03:07;;;;;;;17.30;10.57;;;0.20;99.90;;;;;;5015251;28;21199;-67
2024/01/09 11:05:33;;;;;;;24.30;11.67;;;0.20;99.90;;;;;;5022836;28;20431;-66
2024/01/09 11:08:04;;;;;;;20.00;11.90;;;0.30;99.90;;;;;;5013191;28;20596;-67
2024/01/09 11:10:31;;;;;;;17.70;10.90;;;0.30;99.90;;;;;;5011526;28;20435;-67
2024/01/09 11:13:00;;;;;;;21.33;12.73;;;0.40;99.90;;;;;;5014874;28;20811;-67
2024/01/09 11:15:31;;;;;;;17.13;10.10;;;0.40;99.90;;;;;;5020254;28;20433;-67
2024/01/09 11:18:14;;;;;;;19.13;11.63;;;0.60;99.90;;;;;;5011760;28;20439;-67
2024/01/09 11:20:40;;;;;;;16.87;10.57;;;0.70;99.90;;;;;;5015872;28;20566;-66
2024/01/09 11:23:05;;;;;;;20.10;11.90;;;0.70;99.90;;;;;;5008562;28;21047;-67
2024/01/09 11:25:33;;;;;;;18.33;11.17;;;0.70;99.90;;;;;;5016619;28;20192;-66
2024/01/09 11:28:00;;;;;;;17.50;12.03;;;0.80;99.90;;;;;;5010505;28;20196;-67
2024/01/09 11:30:27;;;;;;;18.60;10.60;;;0.80;99.90;;;;;;5017282;28;20428;-67
2024/01/09 11:32:53;;;;;;;20.43;11.60;;;0.90;99.90;;;;;;5011289;28;20445;-67
2024/01/09 11:35:20;;;;;;;17.60;11.70;;;1.00;99.90;;;;;;5021891;28;20418;-66
2024/01/09 11:37:51;;;;;;;19.87;11.57;;;1.00;99.90;;;;;;5015287;28;20422;-67
2024/01/09 11:40:18;;;;;;;14.10;10.70;;;1.00;99.90;;;;;;5013515;28;20485;-67
2024/01/09 11:42:51;;;;;;;18.30;10.83;;;1.00;99.90;;;;;;5020815;28;20799;-67
2024/01/09 11:45:25;;;;;;;19.40;11.63;;;1.10;99.90;;;;;;5021262;28;21129;-66
2024/01/09 11:47:53;;;;;;;18.27;11.30;;;1.10;99.90;;;;;;5019891;28;20484;-66
2024/01/09 11:50:19;;;;;;;20.63;11.27;;;1.20;99.90;;;;;;5008390;28;20608;-67
2024/01/09 11:52:47;;;;;;;19.07;12.00;;;1.20;99.90;;;;;;5009074;28;20455;-65
2024/01/09 11:55:13;;;;;;;18.07;11.70;;;1.30;99.90;;;;;;5008546;28;20449;-67
2024/01/09 11:57:41;;;;;;;17.97;11.33;;;1.30;99.90;;;;;;5015803;28;20440;-67
2024/01/09 12:00:09;;;;;;;19.90;11.10;;;1.40;99.90;;;;;;5013877;28;20560;-67
2024/01/09 12:02:36;;;;;;;17.23;10.90;;;1.50;99.90;;;;;;5013457;28;20538;-67
2024/01/09 12:05:08;;;;;;;25.60;11.97;;;1.80;99.90;;;;;;5008434;28;20456;-67
2024/01/09 12:07:35;;;;;;;24.97;12.43;;;2.30;99.90;;;;;;5015997;28;20789;-67
2024/01/09 12:10:02;;;;;;;20.07;11.80;;;3.00;99.50;;;;;;5015902;28;20859;-67
2024/01/09 12:12:27;;;;;;;19.13;12.90;;;3.50;98.80;;;;;;5012744;28;20435;-68
2024/01/09 12:14:54;;;;;;;21.77;13.40;;;3.60;97.80;;;;;;5011735;28;20960;-68
2024/01/09 12:17:27;;;;;;;20.77;12.60;;;4.20;98.10;;;;;;5018174;28;20194;-68
2024/01/09 12:19:53;;;;;;;19.73;12.47;;;4.70;97.30;;;;;;5006452;28;20533;-66
2024/01/09 12:22:22;;;;;;;18.27;11.63;;;4.80;95.40;;;;;;5009719;28;20428;-67
2024/01/09 12:24:53;;;;;;;17.40;12.03;;;5.10;95.30;;;;;;5022419;28;20840;-67